createdAt,value
2019-03-01T00:00:16.945Z,38.07
2019-03-01T00:02:45.126Z,39.23
2019-03-01T00:05:47.294Z,41.17
2019-03-01T00:08:15.861Z,41.27
2019-03-01T00:11:00.368Z,38.43
2019-03-01T00:13:50.003Z,41.07
2019-03-01T00:16:25.768Z,40.73
2019-03-01T00:19:07.717Z,41.77
2019-03-01T00:21:41.700Z,43.50
2019-03-01T00:24:11.604Z,41.37
2019-03-01T00:26:50.462Z,41.87
2019-03-01T00:29:26.134Z,40.43
2019-03-01T00:32:14.273Z,42.37
2019-03-01T00:34:52.759Z,40.90
2019-03-01T00:37:28.683Z,41.30
2019-03-01T00:40:27.544Z,43.70
2019-03-01T00:43:32.617Z,41.43
2019-03-01T00:45:58.741Z,43.63
2019-03-01T00:48:24.929Z,43.90
2019-03-01T00:50:51.151Z,43.60
2019-03-01T00:53:17.444Z,43.97
2019-03-01T00:55:43.733Z,44.40
2019-03-01T00:58:10.111Z,44.20
2019-03-01T01:00:42.843Z,44.80
2019-03-01T01:03:09.177Z,44.87
2019-03-01T01:05:35.483Z,46.37
2019-03-01T01:08:01.700Z,45.03
2019-03-01T01:10:27.913Z,46.03
2019-03-01T01:12:54.136Z,46.67
2019-03-01T01:15:20.408Z,46.43
2019-03-01T01:17:46.595Z,47.67
2019-03-01T01:20:12.882Z,48.33
2019-03-01T01:22:39.136Z,48.53
2019-03-01T01:25:05.452Z,48.17
2019-03-01T01:27:31.785Z,46.00
2019-03-01T01:29:58.013Z,48.23
2019-03-01T01:32:24.151Z,47.03
2019-03-01T01:34:50.226Z,47.13
2019-03-01T01:37:16.322Z,50.03
2019-03-01T01:39:42.525Z,49.20
2019-03-01T01:42:08.739Z,45.77
2019-03-01T01:44:34.836Z,48.33
2019-03-01T01:47:01.141Z,46.57
2019-03-01T01:49:27.251Z,45.67
2019-03-01T01:51:53.356Z,47.33
2019-03-01T01:54:19.568Z,49.13
2019-03-01T01:56:45.946Z,46.87
2019-03-01T01:59:12.145Z,46.97
2019-03-01T02:01:38.282Z,48.73
2019-03-01T02:04:04.789Z,49.40
2019-03-01T02:06:30.989Z,47.33
2019-03-01T02:08:57.229Z,44.90
2019-03-01T02:11:23.642Z,46.20
2019-03-01T02:13:49.751Z,45.27
2019-03-01T02:16:16.050Z,46.23
2019-03-01T02:18:42.162Z,47.33
2019-03-01T02:21:08.493Z,45.50
2019-03-01T02:23:34.889Z,46.40
2019-03-01T02:26:01.084Z,46.33
2019-03-01T02:28:27.177Z,45.30
2019-03-01T02:30:57.116Z,46.27
2019-03-01T02:33:23.210Z,46.17
2019-03-01T02:35:49.458Z,48.13
2019-03-01T02:38:15.817Z,48.13
2019-03-01T02:40:41.911Z,47.70
2019-03-01T02:43:08.296Z,48.63
2019-03-01T02:45:34.608Z,50.00
2019-03-01T02:48:00.796Z,49.70
2019-03-01T02:50:27.230Z,49.87
2019-03-01T02:52:53.520Z,48.00
2019-03-01T02:55:20.417Z,49.30
2019-03-01T02:57:46.817Z,49.27
2019-03-01T03:00:29.419Z,49.60
2019-03-01T03:02:55.719Z,50.43
2019-03-01T03:05:22.012Z,50.40
2019-03-01T03:07:50.127Z,49.17
2019-03-01T03:10:16.755Z,48.40
2019-03-01T03:12:44.158Z,50.10
2019-03-01T03:15:13.143Z,49.17
2019-03-01T03:17:39.284Z,48.00
2019-03-01T03:20:07.991Z,48.40
2019-03-01T03:22:34.098Z,51.10
2019-03-01T03:25:00.547Z,50.43
2019-03-01T03:27:26.678Z,50.83
2019-03-01T03:29:52.795Z,50.57
2019-03-01T03:32:19.018Z,50.47
2019-03-01T03:34:45.209Z,49.07
2019-03-01T03:37:11.296Z,51.17
2019-03-01T03:39:37.516Z,51.63
2019-03-01T03:42:04.143Z,51.87
2019-03-01T03:44:30.449Z,53.17
2019-03-01T03:46:56.566Z,51.93
2019-03-01T03:49:22.958Z,51.40
2019-03-01T03:51:49.314Z,52.80
2019-03-01T03:54:15.406Z,50.53
2019-03-01T03:56:41.602Z,51.00
2019-03-01T03:59:07.814Z,49.23
2019-03-01T04:01:33.994Z,51.50
2019-03-01T04:04:00.303Z,51.00
2019-03-01T04:06:26.581Z,51.03
2019-03-01T04:08:52.784Z,50.60
2019-03-01T04:11:18.989Z,51.90
2019-03-01T04:13:45.287Z,50.37
2019-03-01T04:16:11.375Z,51.63
2019-03-01T04:18:37.487Z,54.10
2019-03-01T04:21:03.567Z,53.70
2019-03-01T04:23:29.784Z,53.47
2019-03-01T04:25:55.898Z,55.77
2019-03-01T04:28:21.993Z,54.87
2019-03-01T04:30:48.091Z,54.93
2019-03-01T04:33:14.479Z,54.93
2019-03-01T04:35:40.701Z,55.97
2019-03-01T04:38:06.873Z,56.87
2019-03-01T04:40:33.009Z,55.23
2019-03-01T04:42:59.328Z,53.70
2019-03-01T04:45:25.457Z,57.53
2019-03-01T04:47:51.653Z,56.17
2019-03-01T04:50:17.871Z,56.50
2019-03-01T04:52:43.990Z,55.87
2019-03-01T04:55:19.362Z,57.73
2019-03-01T04:57:45.469Z,59.97
2019-03-01T05:00:15.534Z,60.27
2019-03-01T05:02:42.933Z,61.47
2019-03-01T05:05:09.269Z,62.63
2019-03-01T05:07:35.384Z,60.07
2019-03-01T05:10:02.118Z,59.50
2019-03-01T05:12:29.345Z,61.33
2019-03-01T05:14:55.590Z,61.50
2019-03-01T05:17:21.808Z,61.80
2019-03-01T05:19:48.087Z,59.63
2019-03-01T05:22:14.387Z,58.03
2019-03-01T05:24:40.685Z,59.33
2019-03-01T05:27:07.049Z,59.77
2019-03-01T05:29:33.430Z,58.97
2019-03-01T05:31:59.535Z,60.83
2019-03-01T05:34:25.627Z,58.20
2019-03-01T05:36:51.731Z,61.03
2019-03-01T05:39:18.092Z,60.93
2019-03-01T05:41:44.305Z,62.57
2019-03-01T05:44:10.636Z,61.27
2019-03-01T05:46:36.988Z,58.83
2019-03-01T05:49:04.438Z,62.83
2019-03-01T05:51:30.750Z,60.40
2019-03-01T05:53:56.985Z,62.93
2019-03-01T05:56:23.203Z,61.27
2019-03-01T05:58:53.162Z,64.07
2019-03-01T06:01:26.003Z,62.90
2019-03-01T06:03:55.772Z,60.60
2019-03-01T06:06:48.397Z,64.50
2019-03-01T06:09:36.619Z,62.87
2019-03-01T06:12:35.982Z,64.47
2019-03-01T06:15:15.598Z,61.87
2019-03-01T06:17:54.452Z,60.83
2019-03-01T06:20:33.682Z,62.43
2019-03-01T06:23:15.159Z,61.47
2019-03-01T06:26:10.596Z,64.00
2019-03-01T06:28:43.312Z,63.93
2019-03-01T06:31:50.076Z,64.17
2019-03-01T06:34:44.478Z,67.50
2019-03-01T06:37:33.884Z,68.37
2019-03-01T06:40:35.061Z,66.33
2019-03-01T06:43:26.423Z,68.83
2019-03-01T06:46:14.557Z,70.20
2019-03-01T06:48:51.716Z,73.30
2019-03-01T06:51:28.782Z,69.13
2019-03-01T06:53:53.535Z,71.03
2019-03-01T06:56:19.721Z,71.83
2019-03-01T06:58:46.073Z,72.60
2019-03-01T07:01:14.204Z,74.23
2019-03-01T07:03:40.484Z,67.97
2019-03-01T07:06:07.703Z,69.67
2019-03-01T07:08:34.260Z,69.53
2019-03-01T07:11:01.681Z,66.90
2019-03-01T07:13:27.872Z,65.40
2019-03-01T07:15:54.084Z,67.67
2019-03-01T07:18:20.305Z,65.50
2019-03-01T07:20:46.402Z,61.57
2019-03-01T07:23:12.635Z,64.30
2019-03-01T07:25:38.829Z,65.90
2019-03-01T07:28:05.272Z,63.83
2019-03-01T07:30:31.706Z,67.13
2019-03-01T07:32:57.828Z,67.20
2019-03-01T07:35:24.033Z,65.67
2019-03-01T07:37:50.230Z,66.93
2019-03-01T07:40:16.502Z,69.43
2019-03-01T07:42:42.619Z,64.07
2019-03-01T07:45:12.839Z,63.57
2019-03-01T07:47:38.988Z,67.80
2019-03-01T07:50:08.996Z,62.60
2019-03-01T07:52:36.222Z,63.17
2019-03-01T07:55:11.201Z,67.47
2019-03-01T07:57:37.597Z,64.70
2019-03-01T08:00:14.057Z,61.80
2019-03-01T08:02:40.718Z,63.70
2019-03-01T08:05:09.822Z,62.57
2019-03-01T08:07:39.237Z,59.33
2019-03-01T08:10:09.152Z,60.07
2019-03-01T08:12:38.707Z,60.80
2019-03-01T08:15:13.190Z,59.43
2019-03-01T08:17:39.880Z,58.70
2019-03-01T08:20:09.546Z,60.63
2019-03-01T08:22:47.482Z,61.27
2019-03-01T08:25:08.018Z,64.13
2019-03-01T08:27:34.380Z,64.30
2019-03-01T08:30:00.482Z,63.87
2019-03-01T08:32:33.036Z,62.43
2019-03-01T08:34:59.219Z,60.43
2019-03-01T08:37:25.312Z,61.33
2019-03-01T08:39:55.060Z,58.50
2019-03-01T08:42:21.197Z,58.93
2019-03-01T08:44:47.403Z,57.67
2019-03-01T08:47:13.613Z,59.83
2019-03-01T08:49:39.835Z,59.73
2019-03-01T08:52:08.318Z,56.53
2019-03-01T08:54:34.584Z,59.17
2019-03-01T08:57:06.543Z,55.73
2019-03-01T08:59:33.764Z,57.10
2019-03-01T09:01:59.966Z,57.23
2019-03-01T09:04:37.560Z,56.87
2019-03-01T09:06:59.319Z,57.43
2019-03-01T09:09:25.642Z,58.53
2019-03-01T09:11:51.991Z,56.60
2019-03-01T09:14:18.578Z,58.80
2019-03-01T09:16:44.799Z,54.37
2019-03-01T09:19:11.082Z,55.03
2019-03-01T09:21:39.383Z,55.60
2019-03-01T09:24:05.892Z,51.93
2019-03-01T09:26:32.120Z,55.30
2019-03-01T09:28:58.338Z,56.43
2019-03-01T09:31:24.553Z,58.03
2019-03-01T09:33:53.734Z,52.30
2019-03-01T09:36:35.719Z,55.37
2019-03-01T09:39:04.405Z,56.47
2019-03-01T09:41:31.914Z,55.97
2019-03-01T09:43:59.673Z,56.40
2019-03-01T09:46:28.218Z,51.67
2019-03-01T09:48:54.356Z,53.60
2019-03-01T09:51:20.795Z,52.67
2019-03-01T09:53:47.204Z,53.00
2019-03-01T09:56:13.810Z,49.43
2019-03-01T09:58:40.167Z,50.97
2019-03-01T10:01:12.174Z,50.13
2019-03-01T10:03:38.574Z,48.83
2019-03-01T10:06:04.916Z,49.97
2019-03-01T10:08:31.266Z,49.37
2019-03-01T10:10:57.462Z,49.97
2019-03-01T10:13:23.716Z,51.77
2019-03-01T10:15:50.059Z,50.77
2019-03-01T10:18:16.247Z,51.10
2019-03-01T10:20:42.834Z,52.90
2019-03-01T10:23:09.209Z,52.90
2019-03-01T10:25:35.547Z,54.40
2019-03-01T10:28:01.629Z,52.50
2019-03-01T10:30:27.840Z,52.13
2019-03-01T10:32:54.267Z,49.80
2019-03-01T10:35:20.580Z,48.67
2019-03-01T10:37:47.805Z,50.50
2019-03-01T10:40:22.703Z,50.10
2019-03-01T10:42:49.064Z,49.33
2019-03-01T10:45:21.701Z,49.37
2019-03-01T10:47:48.117Z,48.57
2019-03-01T10:50:14.360Z,48.20
2019-03-01T10:52:40.671Z,48.63
2019-03-01T10:55:17.367Z,50.60
2019-03-01T10:57:43.956Z,49.60
2019-03-01T11:00:14.170Z,46.90
2019-03-01T11:02:40.630Z,50.03
2019-03-01T11:05:06.983Z,48.63
2019-03-01T11:07:33.228Z,47.60
2019-03-01T11:09:59.559Z,48.10
2019-03-01T11:12:25.792Z,45.20
2019-03-01T11:14:52.005Z,43.40
2019-03-01T11:17:18.241Z,42.70
2019-03-01T11:19:44.599Z,42.87
2019-03-01T11:22:10.821Z,42.10
2019-03-01T11:24:37.100Z,43.70
2019-03-01T11:27:12.593Z,42.53
2019-03-01T11:29:31.447Z,41.43
2019-03-01T11:31:57.556Z,41.47
2019-03-01T11:34:23.675Z,47.77
2019-03-01T11:36:50.987Z,50.10
2019-03-01T11:39:17.945Z,54.23
2019-03-01T11:41:44.097Z,54.53
2019-03-01T11:44:10.453Z,56.17
2019-03-01T11:46:36.776Z,53.93
2019-03-01T11:49:03.185Z,57.27
2019-03-01T11:51:30.482Z,53.67
2019-03-01T11:53:57.887Z,55.83
2019-03-01T11:56:24.324Z,55.70
2019-03-01T11:58:50.425Z,56.37
2019-03-01T12:01:17.535Z,55.23
2019-03-01T12:03:44.731Z,55.40
2019-03-01T12:06:11.442Z,55.43
2019-03-01T12:08:37.572Z,54.33
2019-03-01T12:11:04.076Z,55.77
2019-03-01T12:13:30.444Z,57.27
2019-03-01T12:15:56.609Z,55.30
2019-03-01T12:18:22.977Z,54.03
2019-03-01T12:20:55.171Z,56.47
2019-03-01T12:23:33.230Z,51.73
2019-03-01T12:26:00.132Z,48.40
2019-03-01T12:28:27.094Z,50.90
2019-03-01T12:51:01.709Z,41.80
2019-03-01T12:53:28.171Z,40.73
2019-03-01T12:55:54.576Z,37.87
2019-03-01T12:58:20.878Z,34.77
2019-03-01T13:00:50.568Z,34.60
2019-03-01T13:03:17.692Z,31.40
2019-03-01T13:05:44.038Z,30.97
2019-03-01T13:08:12.579Z,30.53
2019-03-01T13:10:40.336Z,31.33
2019-03-01T13:13:08.285Z,30.50
2019-03-01T13:15:35.071Z,29.80
2019-03-01T13:18:03.319Z,28.37
2019-03-01T13:20:29.995Z,28.47
2019-03-01T13:22:56.504Z,27.77
2019-03-01T13:25:25.822Z,27.57
2019-03-01T13:27:52.617Z,27.40
2019-03-01T13:30:23.683Z,28.50
2019-03-01T13:32:50.021Z,27.67
2019-03-01T13:35:17.635Z,29.00
2019-03-01T13:37:45.066Z,29.00
2019-03-01T13:40:13.576Z,29.40
2019-03-01T13:42:39.836Z,27.97
2019-03-01T13:45:11.870Z,30.67
2019-03-01T13:47:37.344Z,29.13
2019-03-01T13:50:07.154Z,27.43
2019-03-01T13:52:33.561Z,26.63
2019-03-01T13:54:59.878Z,28.73
2019-03-01T13:57:28.039Z,27.27
2019-03-01T13:59:54.459Z,26.63
2019-03-01T14:02:20.910Z,27.83
2019-03-01T14:04:47.089Z,28.13
2019-03-01T14:07:13.436Z,29.23
2019-03-01T14:09:39.691Z,27.60
2019-03-01T14:12:05.840Z,28.43
2019-03-01T14:14:31.938Z,26.40
2019-03-01T14:16:58.231Z,27.87
2019-03-01T14:19:24.479Z,27.77
2019-03-01T14:21:50.662Z,27.33
2019-03-01T14:24:16.791Z,26.57
2019-03-01T14:26:42.923Z,27.23
2019-03-01T14:29:09.227Z,26.43
2019-03-01T14:31:39.809Z,29.00
2019-03-01T14:34:08.243Z,27.80
2019-03-01T14:36:33.571Z,28.53
2019-03-01T14:38:59.890Z,28.80
2019-03-01T14:41:27.290Z,28.33
2019-03-01T14:43:58.782Z,27.57
2019-03-01T14:46:22.098Z,28.23
2019-03-01T14:48:48.402Z,28.83
2019-03-01T14:51:14.623Z,28.93
2019-03-01T14:53:40.845Z,27.77
2019-03-01T14:56:10.759Z,28.27
2019-03-01T14:58:58.535Z,27.93
2019-03-01T15:01:47.526Z,27.67
2019-03-01T15:04:13.945Z,27.30
2019-03-01T15:06:40.219Z,28.27
2019-03-01T15:09:08.166Z,26.43
2019-03-01T15:11:36.315Z,25.80
2019-03-01T15:14:02.829Z,25.83
2019-03-01T15:16:29.149Z,24.87
2019-03-01T15:18:55.471Z,24.43
2019-03-01T15:21:21.809Z,23.73
2019-03-01T15:23:48.391Z,22.43
2019-03-01T15:26:14.630Z,22.77
2019-03-01T15:28:44.555Z,23.83
2019-03-01T15:31:10.900Z,23.93
2019-03-01T15:33:37.050Z,28.63
2019-03-01T15:36:04.466Z,23.33
2019-03-01T15:38:30.829Z,23.47
2019-03-01T15:40:57.148Z,21.90
2019-03-01T15:43:26.568Z,23.30
2019-03-01T15:45:51.715Z,23.63
2019-03-01T15:48:18.151Z,22.40
2019-03-01T15:50:44.346Z,22.33
2019-03-01T15:53:14.577Z,22.63
2019-03-01T15:55:40.940Z,23.57
2019-03-01T15:58:07.143Z,22.87
2019-03-01T16:00:33.559Z,21.67
2019-03-01T16:02:59.852Z,21.97
2019-03-01T16:05:26.102Z,21.17
2019-03-01T16:07:52.249Z,21.77
2019-03-01T16:10:19.318Z,21.03
2019-03-01T16:12:47.221Z,21.27
2019-03-01T16:15:14.764Z,21.80
2019-03-01T16:17:41.165Z,20.70
2019-03-01T16:20:12.965Z,20.70
2019-03-01T16:22:40.814Z,20.93
2019-03-01T16:25:13.041Z,19.80
2019-03-01T16:27:40.554Z,18.67
2019-03-01T16:30:09.790Z,18.97
2019-03-01T16:32:36.189Z,18.00
2019-03-01T16:35:05.312Z,18.27
2019-03-01T16:37:31.742Z,18.57
2019-03-01T16:40:00.235Z,17.37
2019-03-01T16:42:27.483Z,18.60
2019-03-01T16:44:53.667Z,15.60
2019-03-01T16:47:19.897Z,16.27
2019-03-01T16:49:46.129Z,15.17
2019-03-01T16:52:13.348Z,16.73
2019-03-01T16:54:39.672Z,17.23
2019-03-01T16:57:06.220Z,16.10
2019-03-01T16:59:32.536Z,16.53
2019-03-01T17:01:58.863Z,16.87
2019-03-01T17:04:27.418Z,15.27
2019-03-01T17:07:05.549Z,15.97
2019-03-01T17:09:34.998Z,16.70
2019-03-01T17:12:05.870Z,16.43
2019-03-01T17:14:34.911Z,15.23
2019-03-01T17:17:00.729Z,15.40
2019-03-01T17:19:31.835Z,15.10
2019-03-01T17:21:58.042Z,16.70
2019-03-01T17:24:24.376Z,16.40
2019-03-01T17:26:50.706Z,15.77
2019-03-01T17:29:16.912Z,14.60
2019-03-01T17:31:43.174Z,13.70
2019-03-01T17:34:09.536Z,13.23
2019-03-01T17:36:35.817Z,12.67
2019-03-01T17:39:06.116Z,12.10
2019-03-01T17:41:34.232Z,14.50
2019-03-01T17:44:08.598Z,12.73
2019-03-01T17:46:34.876Z,12.57
2019-03-01T17:49:07.008Z,14.70
2019-03-01T17:51:33.173Z,16.07
2019-03-01T17:54:07.696Z,10.70
2019-03-01T17:56:36.691Z,10.00
2019-03-01T17:59:11.610Z,10.93
2019-03-01T18:01:39.170Z,12.97
2019-03-01T18:04:06.874Z,9.93
2019-03-01T18:06:33.324Z,10.40
2019-03-01T18:08:59.762Z,10.87
2019-03-01T18:11:26.196Z,10.20
2019-03-01T18:14:00.351Z,9.27
2019-03-01T18:16:25.712Z,9.97
2019-03-01T18:19:09.166Z,10.10
2019-03-01T18:21:35.500Z,9.10
2019-03-01T18:24:11.019Z,10.10
2019-03-01T18:26:40.024Z,10.43
2019-03-01T18:29:08.382Z,10.60
2019-03-01T18:31:35.565Z,10.60
2019-03-01T18:34:06.560Z,10.70
2019-03-01T18:36:33.029Z,10.80
2019-03-01T18:39:00.192Z,10.77
2019-03-01T18:41:27.413Z,11.60
2019-03-01T18:43:54.713Z,12.53
2019-03-01T18:46:20.934Z,11.33
2019-03-01T18:48:47.229Z,10.80
2019-03-01T18:51:13.377Z,11.10
2019-03-01T18:53:39.770Z,10.83
2019-03-01T18:56:11.251Z,10.80
2019-03-01T18:58:38.582Z,12.10
2019-03-01T19:01:07.815Z,11.17
2019-03-01T19:03:36.491Z,12.80
2019-03-01T19:06:04.735Z,13.33
2019-03-01T19:08:31.260Z,11.43
2019-03-01T19:10:59.745Z,12.53
2019-03-01T19:13:25.838Z,11.93
2019-03-01T19:15:54.594Z,11.87
2019-03-01T19:18:20.402Z,10.77
2019-03-01T19:20:49.147Z,10.03
2019-03-01T19:23:15.697Z,10.57
2019-03-01T19:25:41.946Z,9.47
2019-03-01T19:28:08.412Z,9.63
2019-03-01T19:30:34.768Z,10.03
2019-03-01T19:33:02.200Z,10.50
2019-03-01T19:35:33.299Z,10.43
2019-03-01T19:37:59.694Z,10.90
2019-03-01T19:40:25.891Z,10.43
2019-03-01T19:42:52.373Z,10.70
2019-03-01T19:45:18.948Z,10.70
2019-03-01T19:47:45.183Z,10.37
2019-03-01T19:50:13.620Z,11.07
2019-03-01T19:52:39.955Z,10.40
2019-03-01T19:55:11.770Z,10.37
2019-03-01T19:57:37.621Z,10.50
2019-03-01T20:00:14.035Z,11.23
2019-03-01T20:02:40.462Z,12.17
2019-03-01T20:05:09.802Z,11.70
2019-03-01T20:07:36.126Z,12.80
2019-03-01T20:10:05.792Z,13.03
2019-03-01T20:12:32.209Z,12.07
2019-03-01T20:14:58.435Z,12.07
2019-03-01T20:17:25.219Z,12.33
2019-03-01T20:19:53.609Z,12.10
2019-03-01T20:22:19.659Z,12.83
2019-03-01T20:24:45.984Z,11.90
2019-03-01T20:27:12.280Z,12.50
2019-03-01T20:29:38.640Z,12.20
2019-03-01T20:32:04.976Z,11.60
2019-03-01T20:34:31.421Z,11.20
2019-03-01T20:36:59.398Z,12.07
2019-03-01T20:39:25.706Z,11.90
2019-03-01T20:41:52.027Z,11.67
2019-03-01T20:44:19.860Z,12.10
2019-03-01T20:46:46.200Z,12.27
2019-03-01T20:49:12.658Z,13.07
2019-03-01T20:51:39.151Z,12.83
2019-03-01T20:54:05.632Z,13.23
2019-03-01T20:56:33.913Z,13.50
2019-03-01T20:59:00.180Z,14.77
2019-03-01T21:01:27.765Z,15.00
2019-03-01T21:03:54.003Z,14.53
2019-03-01T21:06:20.438Z,16.37
2019-03-01T21:08:46.614Z,14.90
2019-03-01T21:11:12.979Z,15.43
2019-03-01T21:13:39.097Z,14.53
2019-03-01T21:16:05.435Z,13.40
2019-03-01T21:18:34.170Z,13.33
2019-03-01T21:21:00.035Z,13.57
2019-03-01T21:23:26.292Z,12.70
2019-03-01T21:25:52.669Z,12.83
2019-03-01T21:28:18.877Z,11.47
2019-03-01T21:30:45.670Z,10.73
2019-03-01T21:33:11.967Z,11.87
2019-03-01T21:35:38.286Z,10.00
2019-03-01T21:38:04.740Z,10.40
2019-03-01T21:40:31.478Z,11.00
2019-03-01T21:43:00.149Z,11.20
2019-03-01T21:45:26.513Z,10.43
2019-03-01T21:47:52.967Z,10.97
2019-03-01T21:50:19.373Z,10.70
2019-03-01T21:52:45.685Z,11.20
2019-03-01T21:55:14.202Z,10.97
2019-03-01T21:57:40.590Z,11.83
2019-03-01T22:00:13.448Z,11.10
2019-03-01T22:02:41.815Z,10.90
2019-03-01T22:05:13.506Z,10.43
2019-03-01T22:07:38.519Z,12.53
2019-03-01T22:10:10.537Z,12.83
2019-03-01T22:12:37.290Z,12.10
2019-03-01T22:15:10.133Z,12.17
2019-03-01T22:17:36.375Z,11.63
2019-03-01T22:20:05.657Z,11.70
2019-03-01T22:22:34.191Z,12.33
2019-03-01T22:25:02.205Z,12.60
2019-03-01T22:27:28.874Z,12.40
2019-03-01T22:29:56.403Z,12.53
2019-03-01T22:32:22.691Z,13.07
2019-03-01T22:34:49.176Z,12.63
2019-03-01T22:37:15.297Z,13.10
2019-03-01T22:39:42.831Z,13.17
2019-03-01T22:42:11.444Z,13.40
2019-03-01T22:44:37.373Z,13.13
2019-03-01T22:47:03.711Z,13.97
2019-03-01T22:49:31.808Z,12.97
2019-03-01T22:51:58.149Z,11.77
2019-03-01T22:54:24.357Z,12.33
2019-03-01T22:56:50.673Z,12.00
2019-03-01T22:59:16.791Z,12.30
2019-03-01T23:01:43.093Z,10.13
2019-03-01T23:04:09.641Z,10.40
2019-03-01T23:06:35.732Z,9.80
2019-03-01T23:09:04.219Z,9.37
2019-03-01T23:11:33.584Z,8.63
2019-03-01T23:14:00.017Z,8.17
2019-03-01T23:16:26.115Z,7.10
2019-03-01T23:18:56.737Z,7.43
2019-03-01T23:21:20.449Z,7.53
2019-03-01T23:23:46.697Z,7.57
2019-03-01T23:26:12.895Z,7.47
2019-03-01T23:28:40.798Z,6.70
2019-03-01T23:31:07.704Z,6.90
2019-03-01T23:33:33.919Z,6.90
2019-03-01T23:36:00.279Z,7.20
2019-03-01T23:38:26.473Z,7.37
2019-03-01T23:40:52.571Z,6.80
2019-03-01T23:43:18.675Z,6.53
2019-03-01T23:45:44.765Z,6.60
2019-03-01T23:48:13.640Z,6.80
2019-03-01T23:50:39.157Z,6.80
2019-03-01T23:53:05.375Z,6.60
2019-03-01T23:55:31.572Z,6.53
2019-03-01T23:58:05.789Z,6.83
